Pahrump, Nevada
Current Conditions -  °F | °C
As of 5:52 PM on Thursday 20 Nov 2014 (Local Time) from KDRA Reporting Station
Clear Clear  
Wind Chill: 51°   Ceiling: Unl
Heat Index: 51°   Visibility: 10mi
Dew Point: 12°   Wind: 5mph
Humidity: 21%   Direction: 50°NE
Pressure: 29.95"   Gusts: NA
Location:  36.21°N, 115.99°W
Report Text: KDRA 210152Z AUTO 05004KT 10SM CLR 11/M11 A2995 RMK AO2 SLP131 T01061111 $
Loading
Personal Weather Stations






























Interactive Weather Map New forecast layout! Learn more

10-Day Weather Forecast

Advertisements
Track Severe Weather on mobile